Time;durP1;ratioP1;P1;durP2;ratioP2;P2;SDS_P1;SDS_P2;PMS_P1;PMS_P2;Temp;Humidity;BMP_temperature;BMP_pressure;BME280_temperature;BME280_humidity;BME280_pressure;Samples;Min_cycle;Max_cycle;Signal;HPM_P1;HPM_P2
2023/07/28 00:00:30;;;;;;;3.80;2.78;;;20.40;68.60;;;;;;4979873;28;20031;-60
2023/07/28 00:02:55;;;;;;;4.25;2.70;;;20.40;68.70;;;;;;4980608;28;20109;-65
2023/07/28 00:05:21;;;;;;;5.13;2.97;;;20.30;68.80;;;;;;4980207;28;20338;-61
2023/07/28 00:07:47;;;;;;;5.35;2.70;;;20.20;68.90;;;;;;4979742;28;20019;-61
2023/07/28 00:10:13;;;;;;;3.42;2.30;;;20.20;69.10;;;;;;4979964;28;20043;-64
2023/07/28 00:12:43;;;;;;;3.70;2.60;;;20.10;69.30;;;;;;4978248;28;20015;-64
2023/07/28 00:15:09;;;;;;;4.00;2.55;;;20.20;69.40;;;;;;4977998;28;20457;-63
2023/07/28 00:17:35;;;;;;;3.88;2.83;;;20.10;69.20;;;;;;4977623;28;20027;-64
2023/07/28 00:20:01;;;;;;;4.93;2.63;;;20.10;69.20;;;;;;4977941;28;20042;-63
2023/07/28 00:22:27;;;;;;;3.63;2.33;;;20.20;69.30;;;;;;4977919;28;20027;-63
2023/07/28 00:24:53;;;;;;;3.08;2.50;;;20.10;69.30;;;;;;4977544;28;20342;-62
2023/07/28 00:27:20;;;;;;;2.97;2.53;;;20.10;69.30;;;;;;4977469;28;20050;-64
2023/07/28 00:29:51;;;;;;;2.97;2.47;;;20.10;69.40;;;;;;4976303;28;20448;-64
2023/07/28 00:32:17;;;;;;;4.35;2.78;;;20.10;69.40;;;;;;4977151;28;20073;-61
2023/07/28 00:34:43;;;;;;;4.57;2.80;;;20.10;69.40;;;;;;4977204;28;20031;-64
2023/07/28 00:37:09;;;;;;;7.90;2.80;;;20.10;69.30;;;;;;4977572;28;20073;-61
2023/07/28 00:39:35;;;;;;;4.55;2.70;;;20.00;69.20;;;;;;4977143;28;20454;-62
2023/07/28 00:42:01;;;;;;;3.25;2.40;;;20.10;69.40;;;;;;4977033;28;20037;-60
2023/07/28 00:44:27;;;;;;;2.33;2.10;;;20.00;69.50;;;;;;4977180;28;20093;-63
2023/07/28 00:46:53;;;;;;;4.30;2.70;;;20.00;69.50;;;;;;4977157;28;20018;-63
2023/07/28 00:49:19;;;;;;;3.03;2.35;;;20.00;69.60;;;;;;4976917;28;20078;-65
2023/07/28 00:51:45;;;;;;;3.90;2.50;;;20.00;69.80;;;;;;4976904;28;20045;-63
2023/07/28 00:54:12;;;;;;;3.33;2.30;;;20.00;69.90;;;;;;4976827;28;20031;-63
2023/07/28 00:56:41;;;;;;;4.40;2.60;;;20.00;69.90;;;;;;4977046;28;20081;-63
2023/07/28 00:59:14;;;;;;;4.65;2.08;;;19.90;70.10;;;;;;4977218;28;20035;-62
2023/07/28 01:01:41;;;;;;;3.55;2.55;;;19.90;70.20;;;;;;4976726;28;20041;-63
2023/07/28 01:04:08;;;;;;;3.70;2.38;;;19.90;70.10;;;;;;4976541;28;20026;-60
2023/07/28 01:06:45;;;;;;;2.90;2.30;;;19.80;70.20;;;;;;4976863;28;20476;-65
2023/07/28 01:09:21;;;;;;;4.15;2.25;;;19.80;70.40;;;;;;4977171;28;20456;-60
2023/07/28 01:12:01;;;;;;;4.90;2.20;;;19.80;70.40;;;;;;4976499;28;20047;-64
2023/07/28 01:14:29;;;;;;;4.03;2.45;;;19.80;70.50;;;;;;4976510;28;20039;-61
2023/07/28 01:16:56;;;;;;;4.80;2.35;;;19.90;70.40;;;;;;4976430;28;20026;-63
2023/07/28 01:19:23;;;;;;;3.88;2.40;;;19.80;70.40;;;;;;4976460;28;20061;-63
2023/07/28 01:22:15;;;;;;;5.57;2.42;;;19.90;70.40;;;;;;4976693;28;20042;-61
2023/07/28 01:25:26;;;;;;;3.92;2.47;;;19.90;70.50;;;;;;4966851;28;20089;-61
2023/07/28 01:27:54;;;;;;;4.70;2.60;;;19.80;70.70;;;;;;4976326;28;20058;-63
2023/07/28 01:30:21;;;;;;;3.70;2.40;;;19.90;70.50;;;;;;4976664;28;20026;-61
2023/07/28 01:32:48;;;;;;;2.75;2.15;;;19.80;70.50;;;;;;4976544;28;20106;-63
2023/07/28 01:35:17;;;;;;;3.17;2.33;;;19.70;70.50;;;;;;4977027;28;20042;-64
2023/07/28 01:37:50;;;;;;;6.25;2.65;;;19.70;70.50;;;;;;4976762;28;20027;-61
2023/07/28 01:40:18;;;;;;;;;;;19.70;70.60;;;;;;4976647;28;20086;-61
2023/07/28 01:42:44;;;;;;;4.97;2.40;;;19.70;71.70;;;;;;4976773;28;20319;-62
2023/07/28 01:45:10;;;;;;;2.88;2.40;;;19.70;70.70;;;;;;4976458;28;20034;-63
2023/07/28 01:47:38;;;;;;;3.65;2.38;;;19.60;70.60;;;;;;4976264;28;20035;-65
2023/07/28 01:50:08;;;;;;;4.40;2.53;;;19.60;70.60;;;;;;4976362;28;20034;-59
2023/07/28 01:52:36;;;;;;;4.30;2.45;;;19.50;70.80;;;;;;4980094;28;20399;-65
2023/07/28 01:55:02;;;;;;;4.65;2.60;;;19.50;70.90;;;;;;4980054;28;20058;-65
2023/07/28 01:57:33;;;;;;;3.45;2.40;;;19.50;71.10;;;;;;4979980;28;20027;-62
2023/07/28 02:00:03;;;;;;;3.20;2.38;;;19.40;71.20;;;;;;4980553;28;20042;-60
2023/07/28 02:02:29;;;;;;;2.65;2.28;;;19.40;71.30;;;;;;4980493;28;20047;-63
2023/07/28 02:04:58;;;;;;;3.83;2.33;;;19.40;71.40;;;;;;4979879;28;20071;-62
2023/07/28 02:07:24;;;;;;;4.05;2.13;;;19.40;71.30;;;;;;4979914;28;20038;-60
2023/07/28 02:09:49;;;;;;;4.93;2.60;;;19.40;71.30;;;;;;4979590;28;20027;-59
2023/07/28 02:12:20;;;;;;;3.97;2.45;;;19.40;71.40;;;;;;4979831;28;20076;-61
2023/07/28 02:14:46;;;;;;;3.28;2.25;;;19.40;71.30;;;;;;4978768;28;20042;-62
2023/07/28 02:17:12;;;;;;;3.13;2.40;;;19.40;71.50;;;;;;4979679;28;20015;-61
2023/07/28 02:19:40;;;;;;;3.20;2.40;;;19.40;71.50;;;;;;4979687;28;20465;-62
2023/07/28 02:22:06;;;;;;;4.88;2.47;;;19.40;71.50;;;;;;4980025;28;20062;-64
2023/07/28 02:27:03;;;;;;;4.25;2.80;;;19.30;71.60;;;;;;4980214;28;20322;-60
2023/07/28 02:29:29;;;;;;;6.72;2.88;;;19.30;71.70;;;;;;4978541;28;20018;-61
2023/07/28 02:31:55;;;;;;;5.22;3.03;;;19.30;71.80;;;;;;4979597;28;20058;-61
2023/07/28 02:34:21;;;;;;;3.45;2.80;;;19.30;71.80;;;;;;4979888;28;20030;-63
2023/07/28 02:36:47;;;;;;;4.07;2.70;;;19.30;71.90;;;;;;4979277;28;20043;-59
2023/07/28 02:39:14;;;;;;;5.65;2.38;;;19.20;72.00;;;;;;4979281;28;20105;-64
2023/07/28 02:41:40;;;;;;;6.30;3.10;;;19.20;72.00;;;;;;4979746;28;20081;-59
2023/07/28 02:44:06;;;;;;;4.93;3.17;;;19.20;72.10;;;;;;4978123;28;20117;-62
2023/07/28 02:46:31;;;;;;;7.00;3.85;;;19.20;72.30;;;;;;4979096;28;20115;-63
2023/07/28 02:48:59;;;;;;;9.40;3.80;;;19.20;72.10;;;;;;4979137;28;20034;-63
2023/07/28 02:51:25;;;;;;;10.30;4.13;;;19.10;72.00;;;;;;4979567;28;20027;-63
2023/07/28 02:53:51;;;;;;;7.40;3.72;;;19.10;72.10;;;;;;4979040;28;20018;-61
2023/07/28 02:56:17;;;;;;;7.25;3.50;;;19.00;72.30;;;;;;4979188;28;20113;-58
2023/07/28 02:58:43;;;;;;;5.88;3.22;;;18.90;72.50;;;;;;4978922;28;20102;-64
2023/07/28 03:01:09;;;;;;;6.40;3.40;;;18.90;72.60;;;;;;4979342;28;20023;-62
2023/07/28 03:03:35;;;;;;;11.23;3.95;;;19.00;72.60;;;;;;4979347;28;20082;-60
2023/07/28 03:06:01;;;;;;;6.55;3.45;;;19.00;72.60;;;;;;4978685;28;20103;-64
2023/07/28 03:08:26;;;;;;;6.70;3.40;;;18.90;72.70;;;;;;4978741;28;20468;-64
2023/07/28 03:11:02;;;;;;;8.65;3.40;;;19.00;72.60;;;;;;4978486;28;20086;-61
2023/07/28 03:13:28;;;;;;;6.90;3.05;;;18.90;72.70;;;;;;4978974;28;20034;-60
2023/07/28 03:15:54;;;;;;;6.95;3.45;;;19.00;72.80;;;;;;4961487;28;20062;-63
2023/07/28 03:18:20;;;;;;;6.85;3.20;;;18.90;72.80;;;;;;4978551;28;20362;-62
2023/07/28 03:23:11;;;;;;;7.68;3.40;;;18.90;73.00;;;;;;4979221;28;20478;-63
2023/07/28 03:25:37;;;;;;;7.18;3.20;;;18.90;72.90;;;;;;4978353;28;20031;-61
2023/07/28 03:28:03;;;;;;;5.90;3.47;;;18.90;73.00;;;;;;4977386;28;20026;-62
2023/07/28 03:30:29;;;;;;;6.03;3.40;;;18.90;73.00;;;;;;4978618;28;20353;-61
2023/07/28 03:32:55;;;;;;;8.45;3.42;;;18.90;72.90;;;;;;4978322;28;20457;-62
2023/07/28 03:35:23;;;;;;;5.97;3.00;;;18.90;73.00;;;;;;4978314;28;20505;-61
2023/07/28 03:37:49;;;;;;;6.10;3.35;;;18.90;73.10;;;;;;4978243;28;20062;-59
2023/07/28 03:40:15;;;;;;;12.95;3.70;;;18.80;73.00;;;;;;4978761;28;20379;-63
2023/07/28 03:42:41;;;;;;;7.20;3.70;;;18.80;72.90;;;;;;4978639;28;20102;-61
2023/07/28 03:45:08;;;;;;;9.18;3.65;;;18.70;73.00;;;;;;4978087;28;20054;-64
2023/07/28 03:47:34;;;;;;;5.93;3.30;;;18.70;73.30;;;;;;4978303;28;20031;-61
2023/07/28 03:50:00;;;;;;;4.35;2.88;;;18.60;73.40;;;;;;4978057;28;20074;-61
2023/07/28 03:52:26;;;;;;;7.38;3.38;;;18.60;73.60;;;;;;4978235;28;20034;-62
2023/07/28 03:54:52;;;;;;;6.03;2.90;;;18.60;73.60;;;;;;4978463;28;20026;-60
2023/07/28 03:57:18;;;;;;;4.78;3.00;;;18.60;73.70;;;;;;4977834;28;20030;-64
2023/07/28 03:59:43;;;;;;;5.10;3.22;;;18.60;73.70;;;;;;4978379;28;20035;-63
2023/07/28 04:02:12;;;;;;;5.50;2.78;;;18.60;73.70;;;;;;4977794;28;20073;-63
2023/07/28 04:04:40;;;;;;;4.38;2.67;;;18.60;73.80;;;;;;4978338;28;20054;-63
2023/07/28 04:07:06;;;;;;;4.20;2.63;;;18.60;73.80;;;;;;4977857;28;20106;-62
2023/07/28 04:09:34;;;;;;;5.15;3.00;;;18.60;73.80;;;;;;4977680;28;20046;-65
2023/07/28 04:12:00;;;;;;;6.45;2.58;;;18.70;74.00;;;;;;4977344;28;20062;-61
2023/07/28 04:14:26;;;;;;;5.95;2.90;;;18.70;73.80;;;;;;4977111;28;20023;-64
2023/07/28 04:16:52;;;;;;;8.55;3.05;;;18.70;73.90;;;;;;4977924;28;20027;-64
2023/07/28 04:19:20;;;;;;;4.18;2.97;;;18.70;73.90;;;;;;4977987;28;20026;-64
2023/07/28 04:21:46;;;;;;;5.03;2.90;;;18.80;73.80;;;;;;4977369;28;20111;-62
2023/07/28 04:24:12;;;;;;;4.15;2.97;;;18.90;73.70;;;;;;4977302;28;20054;-62
2023/07/28 04:26:42;;;;;;;5.45;2.92;;;18.90;73.80;;;;;;4977523;28;20399;-59
2023/07/28 04:29:08;;;;;;;5.13;3.00;;;18.90;73.70;;;;;;4977492;28;20027;-61
2023/07/28 04:31:36;;;;;;;4.72;2.90;;;19.00;73.60;;;;;;4977262;28;20334;-64
2023/07/28 04:34:05;;;;;;;4.22;2.72;;;19.00;73.50;;;;;;4977141;28;20047;-61
2023/07/28 04:36:30;;;;;;;6.07;3.08;;;19.20;73.30;;;;;;4977091;28;20433;-62
2023/07/28 04:38:56;;;;;;;5.93;2.47;;;19.30;73.40;;;;;;4977636;28;20082;-63
2023/07/28 04:41:25;;;;;;;5.88;3.40;;;19.30;73.10;;;;;;4977364;28;20322;-64
2023/07/28 04:43:53;;;;;;;5.63;2.83;;;19.50;72.90;;;;;;4977440;28;20022;-63
2023/07/28 04:46:19;;;;;;;7.00;3.22;;;20.10;72.50;;;;;;4977411;28;20031;-65
2023/07/28 04:48:46;;;;;;;7.32;3.28;;;20.70;71.10;;;;;;4977454;28;20396;-62
2023/07/28 04:51:12;;;;;;;6.63;3.13;;;21.20;69.60;;;;;;4976880;28;20398;-62
2023/07/28 04:53:38;;;;;;;5.78;3.30;;;21.60;68.70;;;;;;4977410;28;20023;-65
2023/07/28 04:56:08;;;;;;;5.20;2.88;;;22.40;67.60;;;;;;4976792;28;20393;-62
2023/07/28 05:00:59;;;;;;;5.20;2.90;;;24.20;63.90;;;;;;4976990;28;20069;-64
2023/07/28 05:03:25;;;;;;;5.75;2.90;;;25.10;61.90;;;;;;4975724;28;20035;-60
2023/07/28 05:05:51;;;;;;;4.65;2.80;;;25.90;60.00;;;;;;4976559;28;20023;-62
2023/07/28 05:08:17;;;;;;;4.43;2.78;;;26.80;58.30;;;;;;4976598;28;20031;-64
2023/07/28 05:10:44;;;;;;;9.45;3.03;;;27.50;56.20;;;;;;4976741;28;20118;-64
2023/07/28 05:13:10;;;;;;;5.18;2.80;;;28.20;54.70;;;;;;4976563;28;20027;-63
2023/07/28 05:15:36;;;;;;;3.70;2.65;;;28.90;53.60;;;;;;4976614;28;20457;-63
2023/07/28 05:18:02;;;;;;;6.28;2.80;;;29.50;52.00;;;;;;4976415;28;20050;-64
2023/07/28 05:20:28;;;;;;;4.32;2.55;;;30.20;51.00;;;;;;4976888;28;20031;-61
2023/07/28 05:22:54;;;;;;;5.53;2.58;;;30.90;49.80;;;;;;4977014;28;20158;-68
2023/07/28 05:25:20;;;;;;;27.02;4.60;;;31.40;47.40;;;;;;4975841;28;20022;-62
2023/07/28 05:27:46;;;;;;;9.65;2.80;;;31.80;46.40;;;;;;4975407;28;20027;-62
2023/07/28 05:30:12;;;;;;;5.72;3.20;;;31.80;45.70;;;;;;4976676;28;20025;-63
2023/07/28 05:32:38;;;;;;;5.55;2.40;;;31.80;44.70;;;;;;4976370;28;20364;-62
2023/07/28 05:35:04;;;;;;;13.77;3.22;;;31.70;45.30;;;;;;4976295;28;20077;-65
2023/07/28 05:37:31;;;;;;;3.92;2.50;;;31.80;44.80;;;;;;4976368;28;20046;-66
2023/07/28 05:39:57;;;;;;;3.72;2.47;;;31.90;44.70;;;;;;4976558;28;20449;-64
2023/07/28 05:42:24;;;;;;;3.83;2.70;;;32.10;44.50;;;;;;4976773;28;20035;-64
2023/07/28 05:44:52;;;;;;;4.75;2.50;;;32.10;43.90;;;;;;4976407;28;20078;-65
2023/07/28 05:47:19;;;;;;;3.53;2.50;;;31.90;44.10;;;;;;4976107;28;20023;-68
2023/07/28 05:49:45;;;;;;;3.40;2.58;;;31.80;44.10;;;;;;4976425;28;20353;-63
2023/07/28 05:52:11;;;;;;;4.93;2.70;;;31.70;44.10;;;;;;4976705;28;20426;-60
2023/07/28 05:54:37;;;;;;;4.68;2.67;;;31.40;44.30;;;;;;4976664;28;20041;-66
2023/07/28 05:57:06;;;;;;;3.58;2.63;;;31.50;44.10;;;;;;4976213;28;20042;-61
2023/07/28 05:59:32;;;;;;;3.95;2.42;;;31.90;43.90;;;;;;4976361;28;20429;-62
2023/07/28 06:01:59;;;;;;;2.72;2.40;;;32.50;43.10;;;;;;4976550;28;20030;-61
2023/07/28 06:04:25;;;;;;;3.33;2.50;;;33.40;41.90;;;;;;4975872;28;20449;-68
2023/07/28 06:06:51;;;;;;;3.30;2.40;;;34.10;40.70;;;;;;4976112;28;20038;-68
2023/07/28 06:09:17;;;;;;;4.68;2.35;;;34.60;40.00;;;;;;4976000;28;20125;-61
2023/07/28 06:11:44;;;;;;;5.13;2.30;;;34.70;39.50;;;;;;4975941;28;20134;-63
2023/07/28 06:14:10;;;;;;;4.03;2.33;;;34.10;39.70;;;;;;4976013;28;20073;-61
2023/07/28 06:16:36;;;;;;;4.03;2.33;;;33.90;40.30;;;;;;4975873;28;20038;-68
2023/07/28 06:19:04;;;;;;;3.63;2.30;;;33.60;40.50;;;;;;4976179;28;20434;-61
2023/07/28 06:21:30;;;;;;;4.00;2.70;;;33.10;40.80;;;;;;4976216;28;20034;-60
2023/07/28 06:23:56;;;;;;;6.40;2.58;;;33.00;41.10;;;;;;4975784;28;20098;-61
2023/07/28 06:26:22;;;;;;;4.65;2.65;;;33.20;40.80;;;;;;4975828;28;20038;-61
2023/07/28 06:28:48;;;;;;;4.10;2.47;;;33.40;40.10;;;;;;4974890;28;20033;-67
2023/07/28 06:31:14;;;;;;;2.75;2.38;;;33.50;39.60;;;;;;4975901;28;20416;-63
2023/07/28 06:33:40;;;;;;;4.20;2.42;;;33.50;38.80;;;;;;4975861;28;20034;-64
2023/07/28 06:36:07;;;;;;;3.15;2.50;;;33.50;38.80;;;;;;4975998;28;20045;-64
2023/07/28 06:38:33;;;;;;;3.80;2.63;;;33.40;38.60;;;;;;4978362;28;20511;-61
2023/07/28 06:40:59;;;;;;;3.47;2.33;;;33.20;38.20;;;;;;4979296;28;20042;-64
2023/07/28 06:43:26;;;;;;;2.63;2.10;;;32.70;38.60;;;;;;4979515;28;20058;-66
2023/07/28 06:45:54;;;;;;;5.72;2.75;;;32.40;39.00;;;;;;4979355;28;20181;-66
2023/07/28 06:48:20;;;;;;;3.42;2.20;;;31.90;39.30;;;;;;4979136;28;20027;-60
2023/07/28 06:50:46;;;;;;;3.33;2.42;;;32.00;39.40;;;;;;4979602;28;20038;-64
2023/07/28 06:53:12;;;;;;;4.78;2.72;;;32.70;38.70;;;;;;4979337;28;20011;-68
2023/07/28 06:55:39;;;;;;;4.38;2.50;;;33.50;37.40;;;;;;4978932;28;20041;-61
2023/07/28 06:58:06;;;;;;;4.03;2.67;;;34.00;36.60;;;;;;4979209;28;20030;-66
2023/07/28 07:00:32;;;;;;;5.05;2.60;;;33.90;36.60;;;;;;4979170;28;20406;-65
2023/07/28 07:02:58;;;;;;;4.43;2.70;;;33.40;36.90;;;;;;4979425;28;20085;-63
2023/07/28 07:05:24;;;;;;;5.38;2.80;;;32.70;37.90;;;;;;4979289;28;20035;-64
2023/07/28 07:07:50;;;;;;;3.17;2.40;;;32.10;39.10;;;;;;4978821;28;20027;-63
2023/07/28 07:10:16;;;;;;;4.68;2.83;;;31.60;40.20;;;;;;4978510;28;20026;-66
2023/07/28 07:12:43;;;;;;;6.15;2.65;;;31.20;40.90;;;;;;4979287;28;20102;-65
2023/07/28 07:15:11;;;;;;;6.88;2.70;;;30.60;41.50;;;;;;4978994;28;20025;-63
2023/07/28 07:17:37;;;;;;;3.22;2.53;;;30.30;42.00;;;;;;4978644;28;20038;-63
2023/07/28 07:20:05;;;;;;;3.85;2.60;;;29.90;42.40;;;;;;4978595;28;20026;-64
2023/07/28 07:22:31;;;;;;;3.80;2.40;;;29.60;43.30;;;;;;4978618;28;20027;-63
2023/07/28 07:24:57;;;;;;;3.78;2.78;;;29.40;43.60;;;;;;4978771;28;20035;-65
2023/07/28 07:27:26;;;;;;;4.45;2.45;;;29.20;44.20;;;;;;4978459;28;20338;-65
2023/07/28 07:29:52;;;;;;;4.65;2.75;;;29.10;44.80;;;;;;4978518;28;20023;-68
2023/07/28 07:32:18;;;;;;;4.78;2.60;;;29.10;45.20;;;;;;4978396;28;20023;-65
2023/07/28 07:34:45;;;;;;;3.92;2.72;;;29.10;45.40;;;;;;4978668;28;20089;-64
2023/07/28 07:37:11;;;;;;;3.50;2.60;;;29.00;45.10;;;;;;4978336;28;20035;-62
2023/07/28 07:39:37;;;;;;;3.67;2.53;;;29.00;45.40;;;;;;4978800;28;20100;-63
2023/07/28 07:42:03;;;;;;;4.10;2.20;;;28.90;45.40;;;;;;4978476;28;20042;-62
2023/07/28 07:44:29;;;;;;;5.38;2.40;;;28.90;45.40;;;;;;4977117;28;20170;-65
2023/07/28 07:46:56;;;;;;;6.22;2.50;;;28.90;45.80;;;;;;4978092;28;20105;-60
2023/07/28 07:49:22;;;;;;;3.35;2.47;;;28.90;46.00;;;;;;4977244;28;20029;-63
2023/07/28 07:51:48;;;;;;;4.63;2.30;;;28.90;46.20;;;;;;4977923;28;20465;-64
2023/07/28 07:54:18;;;;;;;3.83;2.50;;;28.80;46.30;;;;;;4978010;28;20027;-64
2023/07/28 07:56:44;;;;;;;4.90;2.63;;;28.80;46.40;;;;;;4976909;28;20417;-65
2023/07/28 07:59:10;;;;;;;4.60;2.17;;;28.80;46.10;;;;;;4977912;28;20078;-64
2023/07/28 08:01:37;;;;;;;5.30;2.22;;;28.80;46.20;;;;;;4977876;28;20055;-61
2023/07/28 08:04:03;;;;;;;6.18;2.60;;;28.80;46.40;;;;;;4978183;28;20015;-65
2023/07/28 08:06:29;;;;;;;4.38;2.30;;;28.80;46.30;;;;;;4977686;28;20113;-68
2023/07/28 08:08:56;;;;;;;3.83;2.30;;;28.80;46.30;;;;;;4978203;28;20110;-66
2023/07/28 08:11:23;;;;;;;4.07;2.13;;;28.80;46.40;;;;;;4976430;28;20121;-61
2023/07/28 08:13:49;;;;;;;4.65;2.42;;;28.70;46.60;;;;;;4977655;28;20078;-63
2023/07/28 08:16:14;;;;;;;3.67;2.35;;;28.70;46.80;;;;;;4977542;28;20034;-63
2023/07/28 08:18:41;;;;;;;2.40;2.20;;;28.70;46.90;;;;;;4977574;28;20026;-62
2023/07/28 08:21:07;;;;;;;3.25;2.38;;;28.80;47.00;;;;;;4977543;28;20027;-63
2023/07/28 08:23:33;;;;;;;3.67;2.20;;;28.60;46.50;;;;;;4978013;28;20027;-62
2023/07/28 08:25:59;;;;;;;4.72;2.30;;;28.70;46.90;;;;;;4977794;28;20053;-65
2023/07/28 08:28:25;;;;;;;2.97;2.10;;;28.70;47.20;;;;;;4977649;28;20023;-63
2023/07/28 08:30:57;;;;;;;2.97;2.25;;;28.60;47.30;;;;;;4977311;28;20031;-64
2023/07/28 08:33:23;;;;;;;3.37;1.90;;;28.80;47.40;;;;;;4977113;28;20062;-63
2023/07/28 08:35:49;;;;;;;3.33;2.00;;;28.90;47.10;;;;;;4976212;28;20038;-64
2023/07/28 08:38:16;;;;;;;4.88;2.40;;;28.90;46.80;;;;;;4977132;28;20077;-66
2023/07/28 08:40:44;;;;;;;3.42;2.45;;;28.90;47.10;;;;;;4977154;28;20027;-62
2023/07/28 08:43:10;;;;;;;3.33;2.20;;;29.10;47.20;;;;;;4977626;28;20033;-63
2023/07/28 08:45:36;;;;;;;3.00;2.05;;;29.10;47.10;;;;;;4976936;28;20027;-65
2023/07/28 08:48:02;;;;;;;3.97;2.40;;;29.20;47.20;;;;;;4976937;28;20034;-67
2023/07/28 08:50:28;;;;;;;3.38;2.35;;;29.40;47.20;;;;;;4977124;28;20496;-61
2023/07/28 08:52:56;;;;;;;3.58;2.60;;;29.40;47.00;;;;;;4976924;28;20027;-67
2023/07/28 08:55:23;;;;;;;4.40;2.60;;;29.40;47.10;;;;;;4977154;28;20405;-60
2023/07/28 08:57:49;;;;;;;4.38;2.80;;;29.30;47.10;;;;;;4975793;28;20062;-65
2023/07/28 09:00:17;;;;;;;3.72;2.20;;;29.20;47.20;;;;;;4976993;28;20063;-62
2023/07/28 09:02:44;;;;;;;2.17;1.95;;;29.10;47.20;;;;;;4977286;28;20037;-63
2023/07/28 09:05:33;;;;;;;4.85;2.20;;;29.00;47.50;;;;;;4976938;28;20034;-64
2023/07/28 09:08:02;;;;;;;2.47;2.17;;;29.10;47.70;;;;;;4976700;28;20093;-62
2023/07/28 09:10:45;;;;;;;4.18;2.50;;;29.20;47.50;;;;;;4976627;28;20125;-63
2023/07/28 09:13:13;;;;;;;7.20;2.97;;;29.20;47.50;;;;;;4976916;28;20023;-63
2023/07/28 09:15:40;;;;;;;6.22;3.00;;;29.30;47.60;;;;;;4976574;28;20035;-64
2023/07/28 09:18:10;;;;;;;5.15;2.60;;;29.30;47.50;;;;;;4976459;28;20142;-64
2023/07/28 09:20:38;;;;;;;4.75;2.60;;;29.20;47.80;;;;;;4976212;28;20061;-66
2023/07/28 09:23:07;;;;;;;3.42;2.25;;;29.20;47.60;;;;;;4975561;28;20452;-66
2023/07/28 09:25:35;;;;;;;3.95;2.70;;;29.30;47.70;;;;;;4977350;28;20105;-67
2023/07/28 09:28:01;;;;;;;4.22;2.88;;;29.40;47.80;;;;;;4975391;28;20027;-65
2023/07/28 09:30:45;;;;;;;3.75;2.10;;;29.50;47.80;;;;;;4975722;28;20022;-67
2023/07/28 09:33:11;;;;;;;6.97;2.35;;;29.60;47.80;;;;;;4976716;28;20027;-64
2023/07/28 09:35:48;;;;;;;3.60;2.40;;;29.70;47.80;;;;;;4976894;28;20027;-63
2023/07/28 09:38:15;;;;;;;4.75;2.20;;;29.70;47.70;;;;;;4976382;28;20041;-68
2023/07/28 09:40:43;;;;;;;4.53;2.50;;;29.70;47.70;;;;;;4975377;28;20038;-65
2023/07/28 09:43:10;;;;;;;4.95;2.50;;;29.80;47.60;;;;;;4976532;28;20022;-65
2023/07/28 09:45:36;;;;;;;5.95;2.75;;;29.80;47.50;;;;;;4976177;28;20031;-63
2023/07/28 09:48:04;;;;;;;4.80;2.50;;;29.70;47.70;;;;;;4976208;28;20047;-62
2023/07/28 09:50:34;;;;;;;4.38;2.55;;;29.50;48.10;;;;;;4976487;28;20146;-62
2023/07/28 09:53:03;;;;;;;4.10;2.47;;;29.40;48.50;;;;;;4976174;28;20042;-63
2023/07/28 09:55:30;;;;;;;3.40;2.30;;;29.30;48.80;;;;;;4975318;28;20027;-63
2023/07/28 09:58:01;;;;;;;3.60;2.20;;;29.40;48.90;;;;;;4976129;28;20046;-63
2023/07/28 10:00:28;;;;;;;5.60;2.60;;;29.50;48.90;;;;;;4976457;28;20042;-63
2023/07/28 10:02:56;;;;;;;4.13;2.45;;;29.50;49.30;;;;;;4976656;28;20030;-65
2023/07/28 10:05:24;;;;;;;3.42;2.40;;;29.50;49.30;;;;;;4975086;28;20046;-66
2023/07/28 10:07:51;;;;;;;3.35;2.40;;;29.50;49.20;;;;;;4975021;28;20513;-65
2023/07/28 10:10:18;;;;;;;3.45;2.40;;;29.60;49.10;;;;;;4975750;28;20473;-67
2023/07/28 10:12:52;;;;;;;3.78;2.50;;;29.50;49.10;;;;;;4979185;28;20057;-62
2023/07/28 10:15:20;;;;;;;7.05;2.70;;;29.50;49.40;;;;;;4978967;28;20037;-63
2023/07/28 10:17:47;;;;;;;3.58;2.45;;;29.50;49.80;;;;;;4978853;28;20074;-62
2023/07/28 10:20:31;;;;;;;4.38;2.40;;;29.40;49.90;;;;;;4978836;28;20046;-62
2023/07/28 10:23:07;;;;;;;3.35;2.10;;;29.40;49.80;;;;;;4979712;28;20058;-61
2023/07/28 10:25:35;;;;;;;6.80;2.10;;;29.40;49.90;;;;;;4979575;28;20035;-66
2023/07/28 10:28:02;;;;;;;4.82;2.40;;;29.50;50.00;;;;;;4978642;28;20327;-62
2023/07/28 10:30:28;;;;;;;5.57;2.40;;;29.60;50.00;;;;;;4978892;28;20500;-63
2023/07/28 10:32:55;;;;;;;3.92;2.20;;;29.70;49.80;;;;;;4978858;28;20429;-65
2023/07/28 10:35:25;;;;;;;2.15;1.80;;;29.70;49.80;;;;;;4979378;28;20022;-63
2023/07/28 10:37:51;;;;;;;4.57;2.17;;;29.90;49.60;;;;;;4979349;28;20125;-64
2023/07/28 10:40:28;;;;;;;4.60;2.38;;;29.90;49.00;;;;;;4979864;28;20030;-65
2023/07/28 10:42:55;;;;;;;4.95;2.25;;;29.90;49.20;;;;;;4979655;28;20078;-63
2023/07/28 10:45:23;;;;;;;4.18;2.30;;;29.80;49.50;;;;;;4979197;28;20027;-63
2023/07/28 10:47:50;;;;;;;3.80;2.00;;;29.80;49.60;;;;;;4979267;28;20082;-62
2023/07/28 10:50:16;;;;;;;3.00;2.00;;;29.80;49.70;;;;;;4979681;28;20049;-64
2023/07/28 10:52:45;;;;;;;5.07;2.13;;;29.80;49.70;;;;;;4979092;28;20445;-63
2023/07/28 10:55:22;;;;;;;2.97;1.80;;;29.90;49.90;;;;;;4979134;28;20026;-63
2023/07/28 10:57:50;;;;;;;3.38;2.30;;;29.90;49.70;;;;;;4979020;28;20038;-65
2023/07/28 11:00:23;;;;;;;3.10;1.80;;;30.00;49.60;;;;;;4961961;28;20113;-63
2023/07/28 11:02:51;;;;;;;3.47;2.05;;;30.00;49.50;;;;;;4978942;28;20444;-64
2023/07/28 11:05:26;;;;;;;3.75;2.25;;;30.10;49.60;;;;;;4978271;28;20042;-68
2023/07/28 11:07:56;;;;;;;2.20;1.77;;;30.20;49.40;;;;;;4978733;28;20100;-62
2023/07/28 11:10:22;;;;;;;2.28;2.08;;;30.20;49.20;;;;;;4979116;28;20047;-64
2023/07/28 11:12:50;;;;;;;4.40;2.00;;;30.10;49.20;;;;;;4977858;28;20035;-65
2023/07/28 11:15:17;;;;;;;3.60;2.08;;;30.10;49.00;;;;;;4977801;28;20096;-64
2023/07/28 11:17:49;;;;;;;3.22;2.00;;;30.00;49.20;;;;;;4978668;28;20035;-66
2023/07/28 11:20:22;;;;;;;3.30;2.17;;;30.10;49.30;;;;;;4979209;28;20034;-63
2023/07/28 11:22:56;;;;;;;5.68;2.20;;;30.20;49.20;;;;;;4977801;28;20031;-64
2023/07/28 11:25:24;;;;;;;5.85;2.10;;;30.20;48.90;;;;;;4978447;28;20061;-65
2023/07/28 11:27:50;;;;;;;2.92;1.90;;;30.20;48.90;;;;;;4978460;28;20027;-63
2023/07/28 11:30:18;;;;;;;2.35;2.00;;;30.10;48.90;;;;;;4978514;28;20022;-65
2023/07/28 11:32:48;;;;;;;2.63;1.90;;;30.10;49.00;;;;;;4978965;28;20022;-61
2023/07/28 11:35:16;;;;;;;2.53;1.98;;;30.20;48.90;;;;;;4977490;28;20070;-63
2023/07/28 11:37:45;;;;;;;4.60;2.20;;;30.30;48.90;;;;;;4978567;28;20019;-64
2023/07/28 11:40:12;;;;;;;3.63;2.20;;;30.30;48.80;;;;;;4977399;28;20027;-65
2023/07/28 11:42:41;;;;;;;2.97;1.98;;;30.40;48.60;;;;;;4978188;28;20389;-68
2023/07/28 11:45:09;;;;;;;5.00;2.33;;;30.40;48.20;;;;;;4978121;28;20031;-63
2023/07/28 11:47:35;;;;;;;2.58;2.25;;;30.30;48.30;;;;;;4978202;28;20014;-65
2023/07/28 11:50:02;;;;;;;2.60;2.28;;;30.30;48.30;;;;;;4978352;28;20038;-62
2023/07/28 11:52:32;;;;;;;5.97;2.30;;;30.30;48.40;;;;;;4978026;28;20038;-66
2023/07/28 11:55:02;;;;;;;4.63;2.22;;;30.30;48.20;;;;;;4977156;28;20063;-65
2023/07/28 11:57:32;;;;;;;3.08;2.30;;;30.20;48.20;;;;;;4976955;28;20114;-60
2023/07/28 11:59:59;;;;;;;3.53;2.30;;;30.20;48.20;;;;;;4977889;28;20441;-61
2023/07/28 12:02:29;;;;;;;3.05;2.13;;;30.20;48.20;;;;;;4977921;28;20018;-61
2023/07/28 12:04:57;;;;;;;3.67;2.35;;;30.10;48.40;;;;;;4976865;28;20026;-62
2023/07/28 12:07:32;;;;;;;3.03;2.15;;;30.20;48.40;;;;;;4977983;28;20400;-66
2023/07/28 12:10:12;;;;;;;4.07;2.25;;;30.20;48.30;;;;;;4978039;28;20037;-60
2023/07/28 12:12:44;;;;;;;5.78;2.58;;;30.20;48.20;;;;;;4939781;29;20036;-63
2023/07/28 12:15:27;;;;;;;4.07;2.35;;;30.00;48.40;;;;;;4939737;29;20070;-65
2023/07/28 12:18:12;;;;;;;;;;;29.90;48.80;;;;;;4938562;29;20075;-64
2023/07/28 12:23:05;;;;;;;5.65;2.70;;;29.90;48.90;;;;;;4939561;29;20024;-66
2023/07/28 12:25:32;;;;;;;4.78;2.30;;;29.90;49.00;;;;;;4939131;29;20042;-62
2023/07/28 12:27:58;;;;;;;3.90;2.40;;;29.90;49.30;;;;;;4938866;29;20024;-66
2023/07/28 12:30:24;;;;;;;4.65;2.45;;;29.90;49.50;;;;;;4939114;28;20035;-65
2023/07/28 12:32:50;;;;;;;5.40;2.58;;;29.90;49.70;;;;;;4938795;29;20485;-64
2023/07/28 12:35:19;;;;;;;2.80;2.38;;;29.90;49.80;;;;;;4938974;29;20478;-65
2023/07/28 12:37:45;;;;;;;4.05;2.40;;;29.90;50.00;;;;;;4938977;29;20078;-67
2023/07/28 12:40:12;;;;;;;5.05;2.50;;;29.90;50.00;;;;;;4939018;28;20078;-62
2023/07/28 12:42:38;;;;;;;3.50;2.40;;;29.90;50.00;;;;;;4938651;28;20043;-63
2023/07/28 12:45:06;;;;;;;3.78;2.30;;;30.00;49.90;;;;;;4938596;29;20036;-66
2023/07/28 12:47:32;;;;;;;4.80;2.67;;;30.00;49.60;;;;;;4938519;29;20374;-65
2023/07/28 12:49:58;;;;;;;3.13;2.47;;;30.00;49.40;;;;;;4921893;29;20114;-63
2023/07/28 12:52:24;;;;;;;3.78;2.30;;;29.90;49.30;;;;;;4938804;29;20438;-61
2023/07/28 12:54:50;;;;;;;4.28;2.50;;;29.90;49.30;;;;;;4938552;29;20058;-62
2023/07/28 12:57:16;;;;;;;3.92;2.53;;;29.90;49.50;;;;;;4937456;29;20028;-63
2023/07/28 12:59:45;;;;;;;3.72;2.50;;;29.90;49.60;;;;;;4953501;28;20035;-64